createdAt,value
2023-04-30T00:00:01.759Z,17.60
2023-04-30T00:02:29.020Z,17.48
2023-04-30T00:04:56.096Z,15.38
2023-04-30T00:07:23.373Z,14.85
2023-04-30T00:09:51.610Z,19.60
2023-04-30T00:12:18.944Z,19.35
2023-04-30T00:14:46.138Z,16.63
2023-04-30T00:17:13.245Z,19.23
2023-04-30T00:19:40.345Z,16.00
2023-04-30T00:22:07.601Z,15.05
2023-04-30T00:24:34.898Z,13.50
2023-04-30T00:27:02.026Z,12.73
2023-04-30T00:29:29.109Z,16.40
2023-04-30T00:31:56.219Z,13.30
2023-04-30T00:34:23.444Z,13.68
2023-04-30T00:36:50.903Z,14.45
2023-04-30T00:39:18.260Z,15.23
2023-04-30T00:41:46.225Z,18.33
2023-04-30T00:44:13.372Z,16.33
2023-04-30T00:46:41.137Z,16.20
2023-04-30T00:49:08.641Z,16.45
2023-04-30T00:51:36.505Z,16.08
2023-04-30T00:54:04.018Z,23.55
2023-04-30T01:02:53.123Z,17.92
2023-04-30T01:05:20.332Z,21.73
2023-04-30T01:07:47.468Z,16.23
2023-04-30T01:10:15.799Z,17.42
2023-04-30T01:13:26.831Z,16.80
2023-04-30T01:16:24.698Z,13.90
2023-04-30T01:18:58.394Z,15.27
2023-04-30T01:21:28.311Z,16.50
2023-04-30T01:24:32.763Z,20.13
2023-04-30T01:27:05.511Z,16.42
2023-04-30T01:29:34.909Z,15.57
2023-04-30T01:32:05.594Z,14.95
2023-04-30T01:34:32.763Z,14.45
2023-04-30T01:37:34.510Z,12.60
2023-04-30T01:40:19.577Z,15.43
2023-04-30T01:43:21.238Z,15.18
2023-04-30T01:46:12.010Z,15.32
2023-04-30T01:48:56.448Z,11.57
2023-04-30T01:51:40.239Z,12.85
2023-04-30T01:54:12.667Z,22.90
2023-04-30T01:56:46.311Z,14.27
2023-04-30T01:59:15.204Z,13.30
2023-04-30T02:01:42.501Z,14.10
2023-04-30T02:04:09.670Z,18.20
2023-04-30T02:06:36.911Z,15.18
2023-04-30T02:09:06.466Z,14.23
2023-04-30T02:11:33.609Z,13.50
2023-04-30T02:14:00.759Z,16.05
2023-04-30T02:16:28.035Z,13.02
2023-04-30T02:18:55.257Z,14.63
2023-04-30T02:21:22.315Z,17.67
2023-04-30T02:23:49.659Z,16.08
2023-04-30T02:26:16.795Z,18.63
2023-04-30T02:28:44.213Z,12.73
2023-04-30T02:31:11.628Z,14.18
2023-04-30T02:33:38.875Z,14.40
2023-04-30T02:36:06.177Z,17.27
2023-04-30T02:38:33.198Z,15.30
2023-04-30T02:41:00.550Z,14.10
2023-04-30T02:43:27.729Z,17.55
2023-04-30T02:45:54.842Z,14.25
2023-04-30T02:48:22.072Z,12.43
2023-04-30T02:50:49.171Z,17.85
2023-04-30T02:53:16.419Z,16.40
2023-04-30T02:55:43.470Z,17.58
2023-04-30T02:58:10.616Z,14.18
2023-04-30T03:00:37.820Z,14.52
2023-04-30T03:03:05.062Z,15.38
2023-04-30T03:05:32.377Z,12.55
2023-04-30T03:07:59.473Z,12.48
2023-04-30T03:10:26.517Z,14.35
2023-04-30T03:12:54.491Z,9.65
2023-04-30T03:15:21.583Z,14.55
2023-04-30T03:17:49.815Z,13.63
2023-04-30T03:20:17.374Z,12.15
2023-04-30T03:22:44.522Z,14.00
2023-04-30T03:25:11.976Z,13.40
2023-04-30T03:27:39.180Z,11.50
2023-04-30T03:30:07.642Z,12.00
2023-04-30T03:32:34.921Z,14.50
2023-04-30T03:35:02.078Z,12.55
2023-04-30T03:37:29.209Z,12.40
2023-04-30T03:39:56.508Z,11.75
2023-04-30T03:42:24.074Z,13.85
2023-04-30T03:44:51.237Z,14.43
2023-04-30T03:47:18.458Z,10.57
2023-04-30T03:49:45.611Z,10.85
2023-04-30T03:52:12.631Z,11.63
2023-04-30T03:54:39.808Z,9.07
2023-04-30T03:57:09.030Z,12.15
2023-04-30T03:59:36.123Z,10.32
2023-04-30T04:02:08.837Z,8.80
2023-04-30T04:04:36.050Z,12.73
2023-04-30T04:07:04.283Z,15.13
2023-04-30T04:09:31.301Z,13.27
2023-04-30T04:11:58.368Z,10.52
2023-04-30T04:14:25.471Z,15.32
2023-04-30T04:16:52.666Z,12.07
2023-04-30T04:19:19.712Z,9.65
2023-04-30T04:21:46.973Z,9.15
2023-04-30T04:24:14.066Z,15.57
2023-04-30T04:26:41.731Z,10.95
2023-04-30T04:29:09.762Z,13.82
2023-04-30T04:31:37.083Z,10.45
2023-04-30T04:34:05.277Z,11.43
2023-04-30T04:36:33.773Z,11.93
2023-04-30T04:39:04.542Z,13.95
2023-04-30T04:41:33.196Z,16.67
2023-04-30T04:44:02.088Z,12.65
2023-04-30T04:46:31.918Z,13.23
2023-04-30T04:48:59.480Z,11.73
2023-04-30T04:51:27.179Z,13.05
2023-04-30T04:53:54.481Z,11.60
2023-04-30T04:56:21.707Z,14.63
2023-04-30T04:58:48.794Z,10.82
2023-04-30T05:01:16.388Z,10.80
2023-04-30T05:03:43.568Z,10.05
2023-04-30T05:06:10.881Z,13.23
2023-04-30T05:08:38.628Z,11.10
2023-04-30T05:11:05.881Z,11.75
2023-04-30T05:13:32.946Z,11.75
2023-04-30T05:16:00.098Z,11.00
2023-04-30T05:18:28.193Z,13.32
2023-04-30T05:20:55.240Z,9.65
2023-04-30T05:23:22.442Z,16.58
2023-04-30T05:25:53.798Z,11.90
2023-04-30T05:28:21.035Z,10.98
2023-04-30T05:30:48.293Z,13.48
2023-04-30T05:33:15.498Z,9.82
2023-04-30T05:35:42.740Z,9.70
2023-04-30T05:38:09.858Z,9.45
2023-04-30T05:40:37.013Z,9.63
2023-04-30T05:43:05.622Z,12.80
2023-04-30T05:45:32.804Z,11.48
2023-04-30T05:48:00.012Z,15.18
2023-04-30T05:50:27.121Z,12.35
2023-04-30T05:52:54.220Z,11.05
2023-04-30T05:55:21.533Z,12.10
2023-04-30T05:57:48.621Z,12.82
2023-04-30T06:00:16.404Z,9.05
2023-04-30T06:02:43.672Z,7.38
2023-04-30T06:05:10.921Z,12.40
2023-04-30T06:07:39.320Z,9.82
2023-04-30T06:10:07.299Z,11.90
2023-04-30T06:12:34.439Z,11.98
2023-04-30T06:15:02.900Z,12.98
2023-04-30T06:17:30.042Z,11.73
2023-04-30T06:19:59.228Z,10.02
2023-04-30T06:22:26.414Z,9.13
2023-04-30T06:24:53.480Z,8.23
2023-04-30T06:27:20.648Z,11.25
2023-04-30T06:29:47.672Z,12.88
2023-04-30T06:32:15.882Z,12.23
2023-04-30T06:34:42.933Z,9.77
2023-04-30T06:37:10.087Z,10.07
2023-04-30T06:39:37.124Z,11.07
2023-04-30T06:42:05.709Z,13.05
2023-04-30T06:44:33.371Z,11.15
2023-04-30T06:47:00.484Z,12.75
2023-04-30T06:49:27.677Z,11.48
2023-04-30T06:51:56.364Z,11.98
2023-04-30T06:54:23.709Z,13.05
2023-04-30T06:56:50.818Z,10.13
2023-04-30T06:59:18.112Z,10.82
2023-04-30T07:01:49.252Z,9.90
2023-04-30T07:06:57.221Z,8.98
2023-04-30T07:09:24.495Z,9.55
2023-04-30T07:11:52.186Z,10.25
2023-04-30T07:14:19.284Z,7.75
2023-04-30T07:16:46.392Z,9.27
2023-04-30T07:19:13.430Z,9.57
2023-04-30T07:21:40.834Z,9.38
2023-04-30T07:24:07.989Z,6.97
2023-04-30T07:26:36.205Z,10.57
2023-04-30T07:29:04.230Z,8.20
2023-04-30T07:31:31.549Z,6.43
2023-04-30T07:33:58.831Z,7.85
2023-04-30T07:36:27.752Z,7.50
2023-04-30T07:38:54.877Z,6.40
2023-04-30T07:41:22.136Z,7.15
2023-04-30T07:43:49.425Z,6.85
2023-04-30T07:46:16.588Z,6.45
2023-04-30T07:48:43.729Z,7.43
2023-04-30T07:51:10.944Z,9.15
2023-04-30T07:53:37.977Z,9.15
2023-04-30T07:56:05.379Z,11.35
2023-04-30T07:58:32.451Z,10.68
2023-04-30T08:00:59.679Z,7.05
2023-04-30T08:03:26.885Z,11.65
2023-04-30T08:05:54.195Z,10.40
2023-04-30T08:08:21.793Z,7.40
2023-04-30T08:10:48.952Z,9.63
2023-04-30T08:13:16.461Z,9.27
2023-04-30T08:15:43.618Z,7.82
2023-04-30T08:18:10.845Z,8.20
2023-04-30T08:20:38.730Z,8.05
2023-04-30T08:23:06.159Z,7.35
2023-04-30T08:25:33.483Z,8.13
2023-04-30T08:28:00.837Z,8.07
2023-04-30T08:30:27.932Z,9.48
2023-04-30T08:32:57.530Z,8.00
2023-04-30T08:35:25.778Z,10.13
2023-04-30T08:37:53.732Z,8.98
2023-04-30T08:40:21.969Z,6.85
2023-04-30T08:43:06.565Z,7.75
2023-04-30T08:45:35.130Z,10.02
2023-04-30T08:48:02.988Z,13.93
2023-04-30T08:50:30.521Z,10.32
2023-04-30T08:53:02.026Z,8.68
2023-04-30T08:55:29.529Z,11.57
2023-04-30T08:57:56.681Z,9.63
2023-04-30T09:00:23.827Z,7.00
2023-04-30T09:02:51.225Z,7.68
2023-04-30T09:05:18.383Z,8.75
2023-04-30T09:10:22.994Z,8.60
2023-04-30T09:13:05.533Z,6.70
2023-04-30T09:15:34.404Z,8.70
2023-04-30T09:18:17.672Z,6.93
2023-04-30T09:21:05.077Z,8.93
2023-04-30T09:23:33.214Z,6.47
2023-04-30T09:26:01.265Z,7.75
2023-04-30T09:28:29.441Z,7.22
2023-04-30T09:30:57.500Z,6.32
2023-04-30T09:33:24.665Z,7.85
2023-04-30T09:35:52.114Z,5.70
2023-04-30T09:38:31.252Z,5.63
2023-04-30T09:41:06.026Z,6.25
2023-04-30T09:43:33.796Z,5.13
2023-04-30T09:46:01.052Z,6.53
2023-04-30T09:48:28.702Z,6.43
2023-04-30T09:50:56.319Z,7.95
2023-04-30T09:53:24.494Z,6.68
2023-04-30T09:55:52.505Z,7.07
2023-04-30T09:58:20.165Z,6.88
2023-04-30T10:00:49.766Z,5.72
2023-04-30T10:03:17.496Z,5.00
2023-04-30T10:05:47.759Z,5.15
2023-04-30T10:08:47.030Z,5.55
2023-04-30T10:11:18.628Z,8.40
2023-04-30T10:14:03.693Z,5.70
2023-04-30T10:16:58.084Z,5.50
2023-04-30T10:19:30.006Z,7.00
2023-04-30T10:21:57.914Z,3.92
2023-04-30T10:24:25.103Z,3.50
2023-04-30T10:26:52.405Z,2.60
2023-04-30T10:29:19.754Z,3.22
2023-04-30T10:31:52.984Z,5.45
2023-04-30T10:34:29.522Z,2.97
2023-04-30T10:37:04.966Z,6.40
2023-04-30T10:42:05.051Z,4.28
2023-04-30T10:44:37.690Z,2.40
2023-04-30T10:47:07.076Z,3.58
2023-04-30T10:49:35.159Z,2.72
2023-04-30T10:52:04.251Z,5.95
2023-04-30T10:54:34.669Z,4.40
2023-04-30T10:57:17.965Z,3.90
2023-04-30T10:59:54.629Z,4.57
2023-04-30T11:02:22.111Z,2.38
2023-04-30T11:05:11.862Z,2.63
2023-04-30T11:07:51.487Z,4.57
2023-04-30T11:10:23.630Z,1.98
2023-04-30T11:12:52.868Z,5.43
2023-04-30T11:15:23.008Z,4.22
2023-04-30T11:17:50.755Z,2.70
2023-04-30T11:20:24.146Z,1.85
2023-04-30T11:23:10.698Z,2.08
2023-04-30T11:26:01.310Z,2.40
2023-04-30T11:28:29.275Z,3.53
2023-04-30T11:30:58.696Z,2.15
2023-04-30T11:33:28.864Z,2.80
2023-04-30T11:35:58.147Z,2.40
2023-04-30T11:38:30.407Z,2.15
2023-04-30T11:41:02.926Z,2.42
2023-04-30T11:43:32.298Z,2.88
2023-04-30T11:46:11.070Z,2.78
2023-04-30T11:48:47.704Z,3.10
2023-04-30T11:51:24.351Z,2.70
2023-04-30T11:53:53.143Z,3.40
2023-04-30T11:56:25.854Z,3.05
2023-04-30T11:58:55.217Z,4.25
2023-04-30T12:01:22.686Z,3.05
2023-04-30T12:03:51.431Z,4.22
2023-04-30T12:06:29.155Z,2.25
2023-04-30T12:08:57.898Z,2.97
2023-04-30T12:11:29.470Z,4.72
2023-04-30T12:14:01.214Z,2.33
2023-04-30T12:16:38.896Z,3.10
2023-04-30T12:19:06.157Z,2.45
2023-04-30T12:21:35.378Z,3.03
2023-04-30T12:24:03.553Z,2.72
2023-04-30T12:26:41.225Z,2.65
2023-04-30T12:29:18.823Z,1.98
2023-04-30T12:31:49.394Z,3.30
2023-04-30T12:34:17.486Z,3.15
2023-04-30T12:36:44.678Z,2.72
2023-04-30T12:39:16.540Z,3.95
2023-04-30T12:41:48.861Z,2.75
2023-04-30T12:44:19.076Z,1.75
2023-04-30T12:46:50.724Z,3.30
2023-04-30T12:49:28.866Z,3.20
2023-04-30T12:52:00.463Z,5.10
2023-04-30T12:54:33.018Z,3.65
2023-04-30T12:57:04.567Z,4.80
2023-04-30T12:59:34.225Z,1.77
2023-04-30T13:02:17.594Z,2.40
2023-04-30T13:04:45.468Z,2.65
2023-04-30T13:07:17.085Z,3.60
2023-04-30T13:09:44.272Z,3.30
2023-04-30T13:12:11.626Z,3.17
2023-04-30T13:14:38.676Z,1.45
2023-04-30T13:17:07.622Z,3.28
2023-04-30T13:19:35.530Z,1.30
2023-04-30T13:22:02.933Z,3.25
2023-04-30T13:24:31.469Z,2.53
2023-04-30T13:26:59.585Z,4.40
2023-04-30T13:29:27.141Z,1.40
2023-04-30T13:31:54.304Z,3.17
2023-04-30T13:34:21.548Z,1.10
2023-04-30T13:36:49.008Z,4.13
2023-04-30T13:39:16.056Z,1.55
2023-04-30T13:41:43.207Z,3.10
2023-04-30T13:44:10.763Z,3.30
2023-04-30T13:46:37.923Z,3.72
2023-04-30T13:49:05.930Z,2.30
2023-04-30T13:51:33.014Z,2.47
2023-04-30T13:54:00.146Z,3.53
2023-04-30T13:56:27.330Z,2.30
2023-04-30T13:58:54.480Z,2.67
2023-04-30T14:01:21.601Z,1.15
2023-04-30T14:03:48.950Z,1.38
2023-04-30T14:06:16.269Z,3.25
2023-04-30T14:08:43.502Z,1.90
2023-04-30T14:11:10.844Z,2.30
2023-04-30T14:13:38.092Z,3.38
2023-04-30T14:16:05.557Z,3.70
2023-04-30T14:18:32.848Z,2.55
2023-04-30T14:21:00.097Z,2.35
2023-04-30T14:23:29.347Z,2.35
2023-04-30T14:25:56.808Z,1.90
2023-04-30T14:28:24.119Z,2.70
2023-04-30T14:30:51.413Z,1.73
2023-04-30T14:33:18.700Z,2.75
2023-04-30T14:35:46.633Z,2.13
2023-04-30T14:38:14.905Z,1.30
2023-04-30T14:40:45.541Z,2.47
2023-04-30T14:43:12.689Z,1.63
2023-04-30T14:45:40.474Z,1.92
2023-04-30T14:48:07.860Z,3.13
2023-04-30T14:50:35.064Z,2.35
2023-04-30T14:53:02.259Z,0.55
2023-04-30T14:55:29.362Z,0.65
2023-04-30T14:57:56.715Z,1.65
2023-04-30T15:00:23.998Z,0.73
2023-04-30T15:02:52.601Z,2.33
2023-04-30T15:05:19.915Z,1.10
2023-04-30T15:07:47.000Z,1.13
2023-04-30T15:10:14.314Z,1.10
2023-04-30T15:12:41.965Z,0.70
2023-04-30T15:15:09.526Z,2.05
2023-04-30T15:17:39.472Z,2.22
2023-04-30T15:20:07.460Z,1.20
2023-04-30T15:22:34.924Z,1.10
2023-04-30T15:25:02.645Z,1.58
2023-04-30T15:27:31.773Z,2.47
2023-04-30T15:29:59.640Z,3.90
2023-04-30T15:32:26.839Z,4.30
2023-04-30T15:34:54.553Z,3.65
2023-04-30T15:37:21.707Z,1.13
2023-04-30T15:39:49.916Z,2.20
2023-04-30T15:42:17.180Z,2.70
2023-04-30T15:44:44.326Z,2.35
2023-04-30T15:47:12.669Z,1.35
2023-04-30T15:49:39.855Z,1.10
2023-04-30T15:52:07.215Z,1.75
2023-04-30T15:54:34.366Z,2.03
2023-04-30T15:57:03.139Z,3.42
2023-04-30T15:59:30.912Z,1.55
2023-04-30T16:01:58.155Z,1.63
2023-04-30T16:04:25.315Z,1.83
2023-04-30T16:06:52.824Z,3.83
2023-04-30T16:09:20.224Z,2.85
2023-04-30T16:11:51.125Z,2.90
2023-04-30T16:14:18.269Z,3.33
2023-04-30T16:16:45.744Z,2.15
2023-04-30T16:19:12.924Z,3.10
2023-04-30T16:21:40.659Z,1.73
2023-04-30T16:24:09.065Z,1.65
2023-04-30T16:26:36.674Z,1.65
2023-04-30T16:29:05.051Z,1.60
2023-04-30T16:31:32.756Z,2.78
2023-04-30T16:34:00.022Z,1.50
2023-04-30T16:36:28.373Z,1.40
2023-04-30T16:38:55.441Z,1.55
2023-04-30T16:41:22.537Z,2.75
2023-04-30T16:43:49.724Z,2.22
2023-04-30T16:46:17.008Z,2.08
2023-04-30T16:48:44.501Z,2.28
2023-04-30T16:51:11.661Z,2.90
2023-04-30T16:53:38.747Z,3.65
2023-04-30T16:56:06.207Z,3.55
2023-04-30T16:58:33.349Z,3.45
2023-04-30T17:01:04.804Z,1.65
2023-04-30T17:03:34.893Z,2.63
2023-04-30T17:06:02.210Z,1.83
2023-04-30T17:08:29.424Z,1.83
2023-04-30T17:10:56.520Z,1.55
2023-04-30T17:13:23.735Z,2.05
2023-04-30T17:15:50.899Z,2.40
2023-04-30T17:18:18.676Z,2.45
2023-04-30T17:20:46.857Z,3.42
2023-04-30T17:23:13.962Z,2.47
2023-04-30T17:25:41.007Z,2.47
2023-04-30T17:28:08.256Z,1.40
2023-04-30T17:30:36.412Z,2.67
2023-04-30T17:33:27.085Z,5.18
2023-04-30T17:35:54.767Z,2.55
2023-04-30T17:38:21.950Z,4.63
2023-04-30T17:40:48.992Z,2.08
2023-04-30T17:43:16.297Z,2.22
2023-04-30T17:45:44.518Z,5.60
2023-04-30T17:48:11.844Z,2.72
2023-04-30T17:50:39.027Z,2.85
2023-04-30T17:53:06.591Z,1.83
2023-04-30T17:55:33.758Z,1.50
2023-04-30T17:58:01.002Z,1.55
2023-04-30T18:00:28.140Z,1.10
2023-04-30T18:02:55.344Z,1.42
2023-04-30T18:05:22.649Z,1.30
2023-04-30T18:07:49.941Z,1.20
2023-04-30T18:10:17.141Z,0.75
2023-04-30T18:12:44.214Z,2.33
2023-04-30T18:15:13.437Z,1.60
2023-04-30T18:17:41.834Z,1.00
2023-04-30T18:20:12.367Z,2.72
2023-04-30T18:22:43.732Z,1.42
2023-04-30T18:25:13.534Z,2.67
2023-04-30T18:27:41.326Z,1.10
2023-04-30T18:30:10.054Z,1.63
2023-04-30T18:32:37.834Z,0.80
2023-04-30T18:35:05.282Z,1.52
2023-04-30T18:37:32.349Z,1.73
2023-04-30T18:40:00.587Z,1.33
2023-04-30T18:42:27.900Z,1.00
2023-04-30T18:44:55.572Z,1.30
2023-04-30T18:47:22.674Z,2.08
2023-04-30T18:49:49.797Z,4.40
2023-04-30T18:52:16.907Z,1.83
2023-04-30T18:54:44.208Z,2.58
2023-04-30T18:57:14.889Z,1.58
2023-04-30T18:59:42.543Z,1.35
2023-04-30T19:02:11.044Z,1.20
2023-04-30T19:04:38.267Z,1.30
2023-04-30T19:07:05.485Z,1.65
2023-04-30T19:09:37.001Z,0.93
2023-04-30T19:12:05.619Z,0.75
2023-04-30T19:14:33.077Z,1.55
2023-04-30T19:17:01.323Z,2.08
2023-04-30T19:19:28.577Z,1.65
2023-04-30T19:21:56.011Z,2.25
2023-04-30T19:24:25.445Z,1.02
2023-04-30T19:26:52.775Z,1.33
2023-04-30T19:29:19.863Z,2.20
2023-04-30T19:31:47.198Z,1.10
2023-04-30T19:34:14.395Z,0.77
2023-04-30T19:36:42.516Z,1.30
